Time;durP1;ratioP1;P1;durP2;ratioP2;P2;SDS_P1;SDS_P2;PMS_P1;PMS_P2;Temp;Humidity;BMP_temperature;BMP_pressure;BME280_temperature;BME280_humidity;BME280_pressure;Samples;Min_cycle;Max_cycle;Signal;HPM_P1;HPM_P2
2023/12/16 00:00:59;;;;;;;0.10;0.10;;;;;;;6.47;100.00;101435.56;5112981;28;20206;-53
2023/12/16 00:03:46;;;;;;;0.10;0.10;;;;;;;6.35;100.00;101438.31;5114671;28;20202;-52
2023/12/16 00:06:33;;;;;;;0.00;0.00;;;;;;;6.21;100.00;101445.47;5116328;28;20545;-52
2023/12/16 00:09:20;;;;;;;0.00;0.00;;;;;;;6.18;100.00;101440.25;5116507;28;20190;-52
2023/12/16 00:12:08;;;;;;;0.10;0.10;;;;;;;6.38;100.00;101437.41;5114955;28;20263;-52
2023/12/16 00:14:55;;;;;;;0.00;0.00;;;;;;;6.31;100.00;101445.38;5116341;28;20190;-52
2023/12/16 00:17:42;;;;;;;0.00;0.00;;;;;;;6.25;100.00;101460.34;5115111;28;20222;-53
2023/12/16 00:20:30;;;;;;;0.10;0.10;;;;;;;6.17;100.00;101457.75;5116208;28;20202;-52
2023/12/16 00:23:17;;;;;;;0.00;0.00;;;;;;;6.19;100.00;101461.28;5116072;28;20228;-53
2023/12/16 00:26:04;;;;;;;0.00;0.00;;;;;;;6.18;100.00;101461.31;5114811;28;20194;-53
2023/12/16 00:28:52;;;;;;;0.00;0.00;;;;;;;6.22;100.00;101445.44;5116167;28;20205;-53
2023/12/16 00:31:39;;;;;;;0.10;0.10;;;;;;;6.17;100.00;101441.97;5115711;28;20218;-52
2023/12/16 00:34:26;;;;;;;0.00;0.00;;;;;;;6.17;100.00;101449.88;5116080;28;20202;-52
2023/12/16 00:37:13;;;;;;;0.03;0.03;;;;;;;6.31;100.00;101433.97;5116094;28;20214;-52
2023/12/16 00:40:01;;;;;;;0.10;0.10;;;;;;;6.28;100.00;101450.66;5115782;28;20205;-52
2023/12/16 00:42:48;;;;;;;0.00;0.00;;;;;;;6.27;100.00;101458.56;5114639;28;20788;-52
2023/12/16 00:45:36;;;;;;;0.10;0.10;;;;;;;6.39;100.00;101444.44;5116020;28;20197;-53
2023/12/16 00:48:22;;;;;;;0.10;0.10;;;;;;;6.44;100.00;101437.34;5115801;28;20354;-53
2023/12/16 00:51:09;;;;;;;0.00;0.00;;;;;;;6.60;100.00;101454.72;5115732;28;20210;-52
2023/12/16 00:53:56;;;;;;;0.00;0.00;;;;;;;6.58;100.00;101457.38;5115652;28;20265;-52
2023/12/16 00:56:43;;;;;;;0.10;0.10;;;;;;;6.42;100.00;101463.69;5114094;28;20284;-52
2023/12/16 00:59:30;;;;;;;0.00;0.00;;;;;;;6.20;100.00;101462.16;5115699;28;20190;-53
2023/12/16 01:02:18;;;;;;;0.00;0.00;;;;;;;6.64;100.00;101471.34;5115853;28;20187;-53
2023/12/16 01:05:05;;;;;;;0.00;0.00;;;;;;;6.35;100.00;101467.25;5115501;28;20671;-52
2023/12/16 01:07:52;;;;;;;0.00;0.00;;;;;;;6.31;100.00;101466.44;5115468;28;20194;-52
2023/12/16 01:10:39;;;;;;;0.00;0.00;;;;;;;6.50;100.00;101463.63;5115291;28;20194;-52
2023/12/16 01:13:26;;;;;;;0.10;0.10;;;;;;;6.59;100.00;101461.75;5115000;28;20217;-52
2023/12/16 01:16:13;;;;;;;0.00;0.00;;;;;;;6.34;100.00;101467.28;5114225;28;20284;-52
2023/12/16 01:19:01;;;;;;;0.10;0.10;;;;;;;6.20;100.00;101468.28;5114885;28;20271;-52
2023/12/16 01:21:48;;;;;;;0.00;0.00;;;;;;;6.42;100.00;101470.72;5115002;28;20190;-52
2023/12/16 01:24:37;;;;;;;0.07;0.07;;;;;;;6.35;100.00;101463.75;5115127;28;20283;-53
2023/12/16 01:27:24;;;;;;;0.00;0.00;;;;;;;6.26;100.00;101460.31;5113915;28;20194;-53
2023/12/16 01:30:11;;;;;;;0.00;0.00;;;;;;;6.18;100.00;101453.41;5114976;28;20198;-52
2023/12/16 01:32:58;;;;;;;0.00;0.00;;;;;;;6.31;100.00;101453.25;5114608;28;20214;-52
2023/12/16 01:35:46;;;;;;;0.10;0.10;;;;;;;6.08;100.00;101460.50;5114767;28;20281;-52
2023/12/16 01:38:33;;;;;;;0.10;0.10;;;;;;;6.02;100.00;101461.41;5114907;28;20194;-53
2023/12/16 01:41:20;;;;;;;0.00;0.00;;;;;;;5.97;100.00;101473.72;5113453;28;20193;-53
2023/12/16 01:44:07;;;;;;;0.00;0.00;;;;;;;5.95;100.00;101479.88;5114751;28;20236;-53
2023/12/16 01:46:54;;;;;;;0.00;0.00;;;;;;;5.97;100.00;101481.59;5114714;28;20328;-53
2023/12/16 01:49:40;;;;;;;0.10;0.10;;;;;;;5.99;100.00;101485.13;5114506;28;20202;-53
2023/12/16 01:52:28;;;;;;;0.00;0.00;;;;;;;6.31;100.00;101484.84;5114413;28;20218;-52
2023/12/16 01:55:15;;;;;;;0.00;0.00;;;;;;;6.46;100.00;101493.47;5114466;28;20194;-52
2023/12/16 01:58:04;;;;;;;0.10;0.10;;;;;;;6.40;100.00;101483.03;5113068;28;20206;-53
2023/12/16 02:00:52;;;;;;;0.10;0.10;;;;;;;6.31;100.00;101491.88;5114313;28;20289;-53
2023/12/16 02:03:39;;;;;;;0.00;0.00;;;;;;;6.18;100.00;101479.72;5114324;28;20186;-52
2023/12/16 02:06:26;;;;;;;0.03;0.03;;;;;;;6.03;100.00;101484.22;5114208;28;20693;-52
2023/12/16 02:09:16;;;;;;;0.00;0.00;;;;;;;6.06;100.00;101482.44;5114233;28;20263;-53
2023/12/16 02:12:03;;;;;;;0.00;0.00;;;;;;;5.95;100.00;101478.13;5112698;28;20332;-52
2023/12/16 02:14:49;;;;;;;0.10;0.10;;;;;;;5.96;100.00;101474.59;5114254;28;20193;-52
2023/12/16 02:17:36;;;;;;;0.00;0.00;;;;;;;6.08;100.00;101480.66;5113983;28;20222;-52
2023/12/16 02:20:24;;;;;;;0.00;0.00;;;;;;;6.14;100.00;101481.47;5114019;28;20292;-52
2023/12/16 02:23:15;;;;;;;0.00;0.00;;;;;;;6.19;100.00;101471.81;5114043;28;20189;-52
2023/12/16 02:26:03;;;;;;;0.00;0.00;;;;;;;6.30;100.00;101472.56;5112315;28;20186;-53
2023/12/16 02:28:49;;;;;;;0.00;0.00;;;;;;;6.39;100.00;101476.88;5113911;28;20222;-52
2023/12/16 02:31:36;;;;;;;0.00;0.00;;;;;;;6.47;100.00;101463.66;5113807;28;20201;-52
2023/12/16 02:34:23;;;;;;;0.00;0.00;;;;;;;6.40;100.00;101465.47;5113989;28;20236;-53
2023/12/16 02:37:12;;;;;;;0.00;0.00;;;;;;;6.24;100.00;101464.72;5113713;28;20202;-52
2023/12/16 02:40:00;;;;;;;0.00;0.00;;;;;;;6.11;100.00;101462.22;5113697;28;20240;-53
2023/12/16 02:42:47;;;;;;;0.00;0.00;;;;;;;6.11;100.00;101449.06;5112293;28;20268;-52
2023/12/16 02:45:34;;;;;;;0.00;0.00;;;;;;;6.16;100.00;101448.13;5113229;28;20194;-53
2023/12/16 02:48:21;;;;;;;0.10;0.10;;;;;;;6.28;100.00;101447.16;5113285;28;20194;-52
2023/12/16 02:51:17;;;;;;;0.00;0.00;;;;;;;6.27;100.00;101453.28;5113154;28;20205;-52
2023/12/16 02:54:04;;;;;;;0.00;0.00;;;;;;;6.25;100.00;101460.34;5112775;28;20221;-52
2023/12/16 02:56:52;;;;;;;0.00;0.00;;;;;;;6.48;100.00;101452.22;5111777;28;20198;-52
2023/12/16 02:59:39;;;;;;;0.03;0.03;;;;;;;6.34;100.00;101441.81;5113032;28;20278;-53
2023/12/16 03:02:26;;;;;;;0.10;0.10;;;;;;;6.17;100.00;101443.72;5113232;28;20194;-52
2023/12/16 03:05:12;;;;;;;0.00;0.00;;;;;;;5.96;100.00;101448.31;5112973;28;20194;-52
2023/12/16 03:07:59;;;;;;;0.03;0.03;;;;;;;5.98;100.00;101454.44;5112821;28;20197;-52
2023/12/16 03:10:46;;;;;;;0.10;0.10;;;;;;;5.95;100.00;101454.44;5111967;28;20197;-52
2023/12/16 03:13:34;;;;;;;0.00;0.00;;;;;;;5.98;100.00;101456.19;5112620;28;20287;-52
2023/12/16 03:16:21;;;;;;;0.10;0.10;;;;;;;6.03;100.00;101452.63;5112825;28;20202;-53
2023/12/16 03:19:08;;;;;;;0.10;0.10;;;;;;;6.06;100.00;101466.63;5112433;28;20249;-53
2023/12/16 03:21:55;;;;;;;0.00;0.00;;;;;;;6.06;100.00;101467.50;5112893;28;20206;-52
2023/12/16 03:24:42;;;;;;;0.00;0.00;;;;;;;6.04;100.00;101469.28;5112665;28;20280;-52
2023/12/16 03:27:29;;;;;;;0.00;0.00;;;;;;;6.00;100.00;101467.59;5111449;28;20205;-52
2023/12/16 03:30:17;;;;;;;0.10;0.10;;;;;;;6.21;100.00;101472.66;5112655;28;20244;-52
2023/12/16 03:33:04;;;;;;;0.00;0.00;;;;;;;5.96;100.00;101468.47;5112449;28;20221;-52
2023/12/16 03:35:51;;;;;;;0.00;0.00;;;;;;;6.02;100.00;101478.97;5112848;28;20632;-53
2023/12/16 03:38:38;;;;;;;0.00;0.00;;;;;;;6.02;100.00;101474.56;5114245;28;20190;-53
2023/12/16 03:41:25;;;;;;;0.00;0.00;;;;;;;5.96;100.00;101476.38;5115108;28;20681;-52
2023/12/16 03:44:12;;;;;;;0.00;0.00;;;;;;;6.12;100.00;101478.00;5116617;28;20722;-53
2023/12/16 03:47:00;;;;;;;0.10;0.10;;;;;;;6.09;100.00;101482.44;5116616;28;20190;-52
2023/12/16 03:49:47;;;;;;;0.00;0.00;;;;;;;6.04;100.00;101469.28;5116423;28;20193;-52
2023/12/16 03:52:34;;;;;;;0.00;0.00;;;;;;;5.96;100.00;101469.34;5116482;28;20236;-52
2023/12/16 03:55:21;;;;;;;0.00;0.00;;;;;;;5.99;100.00;101476.38;5116508;28;20213;-52
2023/12/16 03:58:08;;;;;;;0.10;0.10;;;;;;;6.24;100.00;101467.34;5114874;28;20202;-52
2023/12/16 04:00:55;;;;;;;0.00;0.00;;;;;;;6.02;100.00;101468.44;5116355;28;20202;-53
2023/12/16 04:03:43;;;;;;;0.07;0.07;;;;;;;6.08;100.00;101460.50;5116199;28;20189;-53
2023/12/16 04:06:31;;;;;;;0.00;0.00;;;;;;;5.98;100.00;101464.06;5116100;28;20198;-52
2023/12/16 04:09:18;;;;;;;0.00;0.00;;;;;;;6.03;100.00;101465.78;5116110;28;20194;-52
2023/12/16 04:12:05;;;;;;;0.00;0.00;;;;;;;6.22;100.00;101460.38;5114787;28;20194;-52
2023/12/16 04:14:52;;;;;;;0.00;0.00;;;;;;;6.43;100.00;101469.81;5115674;28;20740;-52
2023/12/16 04:17:39;;;;;;;0.10;0.10;;;;;;;6.16;100.00;101476.19;5115745;28;20712;-52
2023/12/16 04:20:28;;;;;;;0.00;0.00;;;;;;;6.34;100.00;101478.66;5115950;28;20236;-51
2023/12/16 04:23:15;;;;;;;0.10;0.10;;;;;;;6.78;100.00;101477.38;5115914;28;20202;-52
2023/12/16 04:26:02;;;;;;;0.10;0.10;;;;;;;6.34;100.00;101470.78;5114529;28;20218;-52
2023/12/16 04:28:53;;;;;;;0.00;0.00;;;;;;;6.63;100.00;101474.88;5115787;28;20281;-52
2023/12/16 04:31:41;;;;;;;0.00;0.00;;;;;;;6.75;100.00;101475.63;5115738;28;20202;-52
2023/12/16 04:34:27;;;;;;;0.00;0.00;;;;;;;6.86;100.00;101486.06;5115391;28;20217;-52
2023/12/16 04:37:16;;;;;;;0.00;0.00;;;;;;;6.56;100.00;101481.97;5115636;28;20203;-52
2023/12/16 04:40:04;;;;;;;0.10;0.10;;;;;;;6.26;100.00;101483.13;5115632;28;20193;-52
2023/12/16 04:42:50;;;;;;;0.00;0.00;;;;;;;6.08;100.00;101489.44;5114256;28;20186;-53
2023/12/16 04:45:37;;;;;;;0.00;0.00;;;;;;;6.00;100.00;101478.97;5115450;28;20198;-53
2023/12/16 04:48:24;;;;;;;0.00;0.00;;;;;;;5.92;100.00;101479.91;5115196;28;20190;-52
2023/12/16 04:51:11;;;;;;;0.00;0.00;;;;;;;6.01;100.00;101483.34;5115468;28;20193;-52
2023/12/16 04:53:59;;;;;;;0.00;0.00;;;;;;;6.03;100.00;101475.44;5115191;28;20309;-52
2023/12/16 04:56:47;;;;;;;0.00;0.00;;;;;;;5.94;100.00;101478.16;5113996;28;20203;-53
2023/12/16 04:59:34;;;;;;;0.00;0.00;;;;;;;5.94;100.00;101478.16;5115199;28;20229;-53
2023/12/16 05:02:21;;;;;;;0.00;0.00;;;;;;;5.91;100.00;101481.69;5115244;28;20240;-52
2023/12/16 05:05:08;;;;;;;0.00;0.00;;;;;;;6.11;100.00;101489.41;5115138;28;20557;-52
2023/12/16 05:07:55;;;;;;;0.00;0.00;;;;;;;6.17;100.00;101489.34;5115011;28;20198;-52
2023/12/16 05:10:47;;;;;;;0.00;0.00;;;;;;;6.08;100.00;101494.72;5114964;28;20190;-52
2023/12/16 05:13:34;;;;;;;0.10;0.10;;;;;;;6.34;100.00;101499.72;5114746;28;20218;-52
2023/12/16 05:16:21;;;;;;;0.00;0.00;;;;;;;6.09;100.00;101498.22;5114988;28;20361;-52
2023/12/16 05:19:07;;;;;;;0.00;0.00;;;;;;;6.09;100.00;101500.84;5114457;28;20609;-52
2023/12/16 05:21:54;;;;;;;0.00;0.00;;;;;;;5.96;100.00;101497.41;5113812;28;20197;-52
2023/12/16 05:24:41;;;;;;;0.00;0.00;;;;;;;6.13;100.00;101506.06;5114811;28;20193;-52
2023/12/16 05:27:29;;;;;;;0.00;0.00;;;;;;;6.02;100.00;101500.00;5113384;28;20297;-52
2023/12/16 05:30:16;;;;;;;0.00;0.00;;;;;;;5.83;100.00;101493.97;5114641;28;20228;-52
2023/12/16 05:33:03;;;;;;;0.03;0.03;;;;;;;5.80;100.00;101493.13;5114791;28;20244;-52
2023/12/16 05:35:50;;;;;;;0.00;0.00;;;;;;;5.79;100.00;101494.00;5114612;28;20302;-52
2023/12/16 05:38:38;;;;;;;0.00;0.00;;;;;;;5.91;100.00;101499.22;5114535;28;20187;-52
2023/12/16 05:41:25;;;;;;;0.10;0.10;;;;;;;5.77;100.00;101486.13;5113092;28;20195;-53
2023/12/16 05:44:14;;;;;;;0.10;0.10;;;;;;;5.74;100.00;101484.38;5114420;28;20191;-52
2023/12/16 05:47:01;;;;;;;0.10;0.10;;;;;;;5.93;100.00;101498.31;5114189;28;20223;-53
2023/12/16 05:49:47;;;;;;;0.07;0.07;;;;;;;5.88;100.00;101499.19;5114258;28;20195;-52
2023/12/16 05:52:34;;;;;;;0.07;0.07;;;;;;;5.88;100.00;101497.44;5114134;28;20193;-53
2023/12/16 05:55:21;;;;;;;0.00;0.00;;;;;;;5.78;100.00;101490.47;5113886;28;20217;-52
2023/12/16 05:58:08;;;;;;;0.00;0.00;;;;;;;5.93;100.00;101500.94;5112838;28;20661;-53
2023/12/16 06:00:56;;;;;;;0.00;0.00;;;;;;;5.90;100.00;101500.06;5113445;28;20198;-53
2023/12/16 06:03:43;;;;;;;0.10;0.10;;;;;;;5.94;100.00;101486.91;5113908;28;20191;-52
2023/12/16 06:06:31;;;;;;;0.00;0.00;;;;;;;6.11;100.00;101496.44;5113872;28;20201;-52
2023/12/16 06:09:18;;;;;;;0.10;0.10;;;;;;;5.91;100.00;101494.81;5113844;28;20235;-53
2023/12/16 06:12:05;;;;;;;0.00;0.00;;;;;;;5.90;100.00;101493.09;5112475;28;20268;-53
2023/12/16 06:14:52;;;;;;;0.00;0.00;;;;;;;5.98;100.00;101493.00;5113453;28;20213;-53
2023/12/16 06:17:40;;;;;;;0.10;0.10;;;;;;;6.05;100.00;101488.56;5113629;28;20225;-52
2023/12/16 06:20:27;;;;;;;0.10;0.10;;;;;;;6.14;100.00;101488.50;5113666;28;20189;-52
2023/12/16 06:23:15;;;;;;;0.10;0.10;;;;;;;6.19;100.00;101490.22;5113571;28;20210;-53
2023/12/16 06:26:02;;;;;;;0.10;0.10;;;;;;;6.44;100.00;101492.63;5112144;28;20198;-52
2023/12/16 06:28:48;;;;;;;0.00;0.00;;;;;;;6.84;100.00;101500.97;5113598;28;20189;-53
2023/12/16 06:31:35;;;;;;;0.10;0.10;;;;;;;6.77;100.00;101494.94;5113527;28;20264;-53
2023/12/16 06:34:24;;;;;;;0.00;0.00;;;;;;;6.48;100.00;101494.34;5113362;28;20231;-52
2023/12/16 06:37:10;;;;;;;0.07;0.07;;;;;;;6.40;100.00;101494.41;5113429;28;20190;-52
2023/12/16 06:39:58;;;;;;;0.00;0.00;;;;;;;6.69;100.00;101488.88;5113283;28;20306;-52
2023/12/16 06:42:48;;;;;;;0.00;0.00;;;;;;;6.58;100.00;101494.25;5111731;28;20284;-52
2023/12/16 06:45:38;;;;;;;0.00;0.00;;;;;;;6.44;100.00;101495.25;5113271;28;20193;-53
2023/12/16 06:48:25;;;;;;;0.00;0.00;;;;;;;6.57;100.00;101508.31;5113076;28;20210;-52
2023/12/16 06:51:13;;;;;;;0.10;0.10;;;;;;;6.75;100.00;101501.09;5112901;28;20182;-53
2023/12/16 06:54:00;;;;;;;0.10;0.10;;;;;;;6.54;100.00;101494.28;5112898;28;20280;-53
2023/12/16 06:56:47;;;;;;;0.10;0.10;;;;;;;6.60;100.00;101504.75;5111917;28;20190;-53
2023/12/16 06:59:34;;;;;;;0.10;0.10;;;;;;;6.57;100.00;101503.03;5112915;28;20312;-52
2023/12/16 07:02:21;;;;;;;0.00;0.00;;;;;;;6.92;100.00;101504.41;5112957;28;20194;-52
2023/12/16 07:05:10;;;;;;;0.00;0.00;;;;;;;6.76;100.00;101508.13;5112976;28;20194;-52
2023/12/16 07:07:58;;;;;;;0.10;0.10;;;;;;;6.66;100.00;101517.88;5112795;28;20228;-52
2023/12/16 07:10:45;;;;;;;0.00;0.00;;;;;;;6.51;100.00;101513.63;5112362;28;20190;-53
2023/12/16 07:13:32;;;;;;;0.00;0.00;;;;;;;6.42;100.00;101510.19;5114641;28;20548;-53
2023/12/16 07:16:19;;;;;;;0.10;0.10;;;;;;;6.48;100.00;101508.38;5116730;28;20291;-52
2023/12/16 07:19:05;;;;;;;0.10;0.10;;;;;;;6.29;100.00;101507.69;5116717;28;20711;-52
2023/12/16 07:21:52;;;;;;;0.00;0.00;;;;;;;6.19;100.00;101508.66;5117209;28;20323;-52
2023/12/16 07:24:41;;;;;;;0.00;0.00;;;;;;;6.39;100.00;101512.88;5116871;28;20190;-52
2023/12/16 07:27:27;;;;;;;0.10;0.10;;;;;;;6.42;100.00;101513.69;5115875;28;20198;-52
2023/12/16 07:30:16;;;;;;;0.10;0.10;;;;;;;6.81;100.00;101511.56;5117009;28;20198;-52
2023/12/16 07:33:02;;;;;;;0.00;0.00;;;;;;;6.65;100.00;101509.97;5116842;28;20239;-52
2023/12/16 07:35:49;;;;;;;0.00;0.00;;;;;;;6.77;100.00;101505.47;5116832;28;20331;-52
2023/12/16 07:38:40;;;;;;;0.00;0.00;;;;;;;6.54;100.00;101516.22;5116863;28;20202;-52
2023/12/16 07:41:28;;;;;;;0.10;0.10;;;;;;;6.70;100.00;101516.94;5115173;28;20221;-53
2023/12/16 07:44:15;;;;;;;0.00;0.00;;;;;;;6.78;100.00;101517.75;5116750;28;20260;-52
2023/12/16 07:47:02;;;;;;;0.10;0.10;;;;;;;6.84;100.00;101515.03;5116831;28;20186;-52
2023/12/16 07:49:49;;;;;;;0.00;0.00;;;;;;;6.74;100.00;101515.16;5116222;28;20190;-52
2023/12/16 07:52:36;;;;;;;0.00;0.00;;;;;;;6.83;100.00;101510.66;5116519;28;20263;-52
2023/12/16 07:55:23;;;;;;;0.00;0.00;;;;;;;6.95;100.00;101509.66;5116270;28;20703;-53
2023/12/16 07:58:14;;;;;;;0.00;0.00;;;;;;;7.03;100.00;101512.19;5115903;28;20316;-52
2023/12/16 08:01:00;;;;;;;0.00;0.00;;;;;;;7.00;100.00;101518.38;5116344;28;20198;-52
2023/12/16 08:03:48;;;;;;;0.10;0.10;;;;;;;7.06;100.00;101518.31;5116385;28;20198;-52
2023/12/16 08:06:35;;;;;;;0.10;0.10;;;;;;;7.03;100.00;101515.69;5116071;28;20205;-53
2023/12/16 08:09:22;;;;;;;0.00;0.00;;;;;;;6.84;100.00;101516.78;5116079;28;20788;-52
2023/12/16 08:12:09;;;;;;;0.10;0.10;;;;;;;6.85;100.00;101522.06;5114808;28;20186;-52
2023/12/16 08:14:57;;;;;;;0.00;0.00;;;;;;;6.89;100.00;101529.03;5116071;28;20214;-53
2023/12/16 08:17:44;;;;;;;0.00;0.00;;;;;;;6.95;100.00;101525.47;5115991;28;20267;-53
2023/12/16 08:20:31;;;;;;;0.00;0.00;;;;;;;6.99;100.00;101535.06;5116005;28;20255;-52
2023/12/16 08:23:19;;;;;;;0.00;0.00;;;;;;;6.80;100.00;101534.41;5115994;28;20190;-53
2023/12/16 08:26:09;;;;;;;0.10;0.10;;;;;;;6.71;100.00;101538.88;5114678;28;20198;-53
2023/12/16 08:28:56;;;;;;;0.00;0.00;;;;;;;6.88;100.00;101539.59;5115994;28;20198;-53
2023/12/16 08:31:45;;;;;;;0.00;0.00;;;;;;;6.90;100.00;101545.72;5115853;28;20312;-53
2023/12/16 08:34:33;;;;;;;0.00;0.00;;;;;;;6.98;100.00;101541.25;5115649;28;20194;-53
2023/12/16 08:37:21;;;;;;;0.10;0.10;;;;;;;6.97;100.00;101538.63;5115714;28;20316;-53
2023/12/16 08:40:10;;;;;;;0.03;0.03;;;;;;;6.99;100.00;101537.72;5115274;28;20200;-53
2023/12/16 08:42:57;;;;;;;0.10;0.10;;;;;;;7.03;100.00;101542.03;5114278;28;20221;-53
2023/12/16 08:45:43;;;;;;;0.10;0.10;;;;;;;6.92;100.00;101535.16;5115058;28;20210;-53
2023/12/16 08:48:32;;;;;;;0.00;0.00;;;;;;;7.24;100.00;101537.41;5115405;28;20704;-53
2023/12/16 08:51:21;;;;;;;0.00;0.00;;;;;;;7.26;100.00;101533.03;5115411;28;20214;-53
2023/12/16 08:54:08;;;;;;;0.10;0.10;;;;;;;7.17;100.00;101532.25;5115274;28;20684;-53
2023/12/16 08:56:54;;;;;;;0.00;0.00;;;;;;;7.21;100.00;101522.50;5113812;28;20276;-53
2023/12/16 08:59:41;;;;;;;0.00;0.00;;;;;;;7.10;100.00;101530.56;5115283;28;20193;-53
2023/12/16 09:02:28;;;;;;;0.00;0.00;;;;;;;7.30;100.00;101529.44;5115091;28;20586;-53
2023/12/16 09:05:19;;;;;;;0.10;0.10;;;;;;;7.32;100.00;101523.25;5115119;28;20328;-53
2023/12/16 09:08:06;;;;;;;0.00;0.00;;;;;;;7.31;100.00;101523.28;5115200;28;20194;-53
2023/12/16 09:10:53;;;;;;;0.10;0.10;;;;;;;7.16;100.00;101522.59;5113636;28;20313;-53
2023/12/16 09:13:39;;;;;;;0.00;0.00;;;;;;;7.08;100.00;101534.09;5114915;28;20198;-53
2023/12/16 09:16:26;;;;;;;0.03;0.03;;;;;;;7.28;100.00;101526.84;5114637;28;20240;-53
2023/12/16 09:19:13;;;;;;;0.10;0.10;;;;;;;7.17;100.00;101526.97;5114317;28;20221;-53
2023/12/16 09:22:02;;;;;;;0.10;0.10;;;;;;;6.95;100.00;101530.75;5114757;28;20198;-52
2023/12/16 09:24:49;;;;;;;0.00;0.00;;;;;;;7.14;100.00;101536.66;5114743;28;20677;-53
2023/12/16 09:27:36;;;;;;;0.00;0.00;;;;;;;7.23;100.00;101538.31;5113114;28;20266;-53
2023/12/16 09:30:23;;;;;;;0.10;0.10;;;;;;;7.41;100.00;101530.19;5114507;28;20236;-53
2023/12/16 09:33:10;;;;;;;0.00;0.00;;;;;;;7.56;100.00;101527.34;5114562;28;20308;-53
2023/12/16 09:35:57;;;;;;;0.00;0.00;;;;;;;8.04;100.00;101531.06;5113603;28;20210;-53
2023/12/16 09:38:45;;;;;;;0.00;0.00;;;;;;;7.99;100.00;101529.38;5114447;28;20240;-53
2023/12/16 09:41:41;;;;;;;0.10;0.10;;;;;;;7.72;100.00;101533.28;5113088;28;20194;-52
2023/12/16 09:44:28;;;;;;;0.00;0.00;;;;;;;7.91;100.00;101540.06;5114207;28;20201;-53
2023/12/16 09:47:16;;;;;;;0.10;0.10;;;;;;;7.57;100.00;101539.66;5114232;28;20194;-53
2023/12/16 09:50:03;;;;;;;0.00;0.00;;;;;;;7.77;100.00;101543.78;5114282;28;20237;-53
2023/12/16 09:52:50;;;;;;;0.00;0.00;;;;;;;7.77;100.00;101542.00;5114088;28;20205;-53
2023/12/16 09:55:40;;;;;;;0.00;0.00;;;;;;;7.66;100.00;101541.28;5113994;28;20263;-52
2023/12/16 09:58:28;;;;;;;0.10;0.10;;;;;;;7.82;100.00;101541.97;5114146;28;20198;-52
2023/12/16 10:01:16;;;;;;;0.00;0.00;;;;;;;7.36;100.00;101546.06;5114028;28;20198;-53
2023/12/16 10:04:07;;;;;;;0.00;0.00;;;;;;;7.52;100.00;101551.13;5113859;28;20267;-53
2023/12/16 10:06:54;;;;;;;0.00;0.00;;;;;;;7.53;100.00;101544.97;5113949;28;20251;-53
2023/12/16 10:09:41;;;;;;;0.00;0.00;;;;;;;7.49;100.00;101538.88;5113744;28;20243;-53
2023/12/16 10:12:34;;;;;;;0.10;0.10;;;;;;;7.74;100.00;101547.34;5112587;28;20760;-53
2023/12/16 10:15:31;;;;;;;0.00;0.00;;;;;;;7.89;100.00;101546.22;5113700;28;20191;-53
2023/12/16 10:18:19;;;;;;;0.00;0.00;;;;;;;7.91;100.00;101540.06;5113394;28;20287;-53
2023/12/16 10:21:06;;;;;;;0.10;0.10;;;;;;;7.84;100.00;101538.41;5113580;28;20672;-53
2023/12/16 10:24:03;;;;;;;0.00;0.00;;;;;;;7.87;100.00;101534.84;5113146;27;20203;-53
2023/12/16 10:26:49;;;;;;;0.00;0.00;;;;;;;7.90;100.00;101532.13;5112145;28;20191;-52
2023/12/16 10:29:40;;;;;;;0.00;0.00;;;;;;;7.72;100.00;101528.91;5113602;28;20236;-53
2023/12/16 10:32:43;;;;;;;0.00;0.00;;;;;;;7.93;100.00;101530.34;5113633;28;20198;-53
2023/12/16 10:35:31;;;;;;;0.00;0.00;;;;;;;7.80;100.00;101533.16;5113327;28;20194;-53
2023/12/16 10:38:17;;;;;;;0.00;0.00;;;;;;;8.04;100.00;101533.69;5113084;28;20190;-53
2023/12/16 10:41:05;;;;;;;0.07;0.07;;;;;;;7.97;100.00;101532.03;5111850;28;20257;-53
2023/12/16 10:43:52;;;;;;;0.10;0.10;;;;;;;8.14;100.00;101533.53;5113159;28;20279;-53
2023/12/16 10:46:46;;;;;;;0.00;0.00;;;;;;;8.39;100.00;101526.13;5113033;28;20761;-53
2023/12/16 10:49:35;;;;;;;0.00;0.00;;;;;;;8.51;100.00;101525.94;5113142;28;20304;-53
2023/12/16 10:52:23;;;;;;;0.00;0.00;;;;;;;8.41;100.00;101525.22;5113184;28;20711;-53
2023/12/16 10:55:16;;;;;;;0.10;0.10;;;;;;;8.29;100.00;101536.78;5112948;28;20210;-53
2023/12/16 10:58:14;;;;;;;0.00;0.00;;;;;;;8.10;100.00;101521.28;5111780;28;20213;-53
2023/12/16 11:01:06;;;;;;;0.00;0.00;;;;;;;8.24;100.00;101517.53;5112963;28;20197;-52
2023/12/16 11:03:59;;;;;;;0.00;0.00;;;;;;;8.06;100.00;101504.63;5112801;28;20198;-53
2023/12/16 11:06:55;;;;;;;0.00;0.00;;;;;;;8.34;100.00;101507.69;5113057;28;20219;-53
2023/12/16 11:09:43;;;;;;;0.10;0.10;;;;;;;8.24;100.00;101500.81;5113303;28;20190;-53
2023/12/16 11:12:30;;;;;;;0.10;0.10;;;;;;;8.35;100.00;101505.94;5111765;28;20198;-53
2023/12/16 11:15:18;;;;;;;0.07;0.07;;;;;;;8.56;100.00;101508.22;5113316;28;20197;-53
2023/12/16 11:18:14;;;;;;;0.00;0.00;;;;;;;8.54;100.00;101504.72;5112908;28;20320;-53
2023/12/16 11:21:07;;;;;;;0.10;0.10;;;;;;;8.58;100.00;101506.41;5112954;28;20205;-53
2023/12/16 11:23:54;;;;;;;0.00;0.00;;;;;;;8.48;100.00;101499.53;5113224;28;20602;-51
2023/12/16 11:26:41;;;;;;;0.00;0.00;;;;;;;8.66;100.00;101490.41;5111259;28;20233;-52
2023/12/16 11:29:31;;;;;;;0.00;0.00;;;;;;;8.73;100.00;101492.06;5113233;28;20375;-52
2023/12/16 11:32:18;;;;;;;0.00;0.00;;;;;;;8.60;100.00;101476.44;5112912;28;20272;-52
2023/12/16 11:35:05;;;;;;;0.00;0.00;;;;;;;8.84;100.00;101469.81;5112316;28;20686;-54
2023/12/16 11:37:53;;;;;;;0.10;0.10;;;;;;;9.03;100.00;101462.38;5111810;28;20295;-52
2023/12/16 11:40:42;;;;;;;0.10;0.10;;;;;;;9.41;100.00;101465.97;5110710;28;20202;-52
2023/12/16 11:43:47;;;;;;;0.00;0.00;;;;;;;9.42;100.00;101454.50;5111779;28;20256;-52
2023/12/16 11:46:36;;;;;;;0.00;0.00;;;;;;;9.09;100.00;101459.63;5111679;28;20767;-52
2023/12/16 11:49:22;;;;;;;0.00;0.00;;;;;;;9.32;100.00;101447.66;5111765;28;20198;-52
2023/12/16 11:52:09;;;;;;;0.00;0.00;;;;;;;8.99;100.00;101441.34;5112417;28;20193;-52
2023/12/16 11:54:58;;;;;;;0.10;0.10;;;;;;;9.46;100.00;101442.97;5112861;28;20305;-51
2023/12/16 11:57:48;;;;;;;0.00;0.00;;;;;;;9.84;100.00;101433.22;5111330;28;20255;-53
2023/12/16 12:00:36;;;;;;;0.00;0.00;;;;;;;9.64;100.00;101436.34;5115918;28;20283;-52
2023/12/16 12:03:23;;;;;;;0.00;0.00;;;;;;;9.81;100.00;101436.81;5116668;28;20264;-52
2023/12/16 12:06:10;;;;;;;0.03;0.03;;;;;;;9.49;100.00;101434.94;5116655;28;20209;-54
2023/12/16 12:08:56;;;;;;;0.00;0.00;;;;;;;9.69;100.00;101426.53;5116962;28;20190;-53
2023/12/16 12:11:45;;;;;;;0.10;0.10;;;;;;;9.65;100.00;101420.47;5115017;28;20232;-53
2023/12/16 12:14:32;;;;;;;0.00;0.00;;;;;;;10.01;100.00;101405.41;5116338;28;20190;-53
2023/12/16 12:17:19;;;;;;;0.10;0.10;;;;;;;9.91;100.00;101405.69;5116006;28;20218;-52
2023/12/16 12:20:07;;;;;;;0.00;0.00;;;;;;;10.22;100.00;101387.25;5116462;28;20186;-52
2023/12/16 12:22:54;;;;;;;0.00;0.00;;;;;;;11.00;100.00;101380.66;5115972;28;20183;-52
2023/12/16 12:25:41;;;;;;;0.00;0.00;;;;;;;12.19;100.00;101373.25;5114911;28;20204;-51
2023/12/16 12:28:29;;;;;;;0.00;0.00;;;;;;;13.63;97.65;101372.22;5116086;28;20186;-52
2023/12/16 12:31:16;;;;;;;0.10;0.10;;;;;;;14.47;88.98;101357.06;5116060;28;20197;-52
2023/12/16 12:34:04;;;;;;;0.10;0.10;;;;;;;15.07;79.92;101363.22;5115779;28;20190;-52
2023/12/16 12:36:55;;;;;;;0.00;0.00;;;;;;;17.35;68.61;101355.75;5115584;28;20305;-52
2023/12/16 12:39:42;;;;;;;0.10;0.10;;;;;;;16.40;63.62;101357.41;5115832;28;20198;-53
2023/12/16 12:42:29;;;;;;;0.00;0.00;;;;;;;16.44;63.71;101348.28;5114470;28;20214;-52
2023/12/16 12:45:28;;;;;;;0.00;0.00;;;;;;;15.11;66.08;101348.78;5115933;28;20195;-52
2023/12/16 12:48:16;;;;;;;0.10;0.10;;;;;;;14.22;73.52;101343.94;5115586;28;20182;-52
2023/12/16 12:51:05;;;;;;;0.10;0.10;;;;;;;13.34;79.62;101338.78;5115697;28;20198;-52
2023/12/16 12:53:57;;;;;;;0.00;0.00;;;;;;;15.60;74.95;101330.34;5115547;28;20264;-53
2023/12/16 12:56:48;;;;;;;0.10;0.10;;;;;;;16.49;62.33;101327.50;5114110;28;20316;-53
2023/12/16 12:59:35;;;;;;;0.10;0.10;;;;;;;18.38;55.56;101314.84;5115698;28;20687;-53